^^
Grace C. Lehan Memorial Weather Station Historical Data
Daily Summary for April 20, 2021 Units:  English    Metric   Both
Daily Weekly Monthly Yearly
  High: Low: Average:
Temperature: 88 °F 66.5 °F 76.9 °F
Dew Point: 74.4 °F 65.1 °F 70.1 °F
Humidity: 96.6% 61.6% 81%
Wind Speed: 3.6mph 0mph 0.5mph
Wind Gust: 13mph - -
Wind- - West
Pressure: 29.90 in 29.79 in -
Precipitation: 0.00 in    
 
 
Tabular Data for April 20, 2021
Time Temperature Dew Point Pressure Wind Wind Speed Wind Gust Humidity Rainfall Rate (Hourly) solar
00:04 69.7 °F 68.2 °F 29.90 in Calm     95% 0.00 in 0 W/m2
00:09 69.7 °F 68.2 °F 29.90 in Calm     95% 0.00 in 0 W/m2
00:14 69.6 °F 68.1 °F 29.90 in Calm     95% 0.00 in 0 W/m2
00:19 69.6 °F 68.1 °F 29.90 in Calm     95% 0.00 in 0 W/m2
00:24 69.6 °F 68.1 °F 29.90 in Calm     95% 0.00 in 0 W/m2
00:29 69.5 °F 68 °F 29.90 in Calm     95% 0.00 in 0 W/m2
00:34 69.5 °F 68 °F 29.90 in Calm     95% 0.00 in 0 W/m2
00:39 69.5 °F 68 °F 29.90 in Calm     95% 0.00 in 0 W/m2
00:44 69.5 °F 68 °F 29.89 in Calm     95% 0.00 in 0 W/m2
00:49 69.5 °F 68 °F 29.89 in Calm     95% 0.00 in 0 W/m2
00:54 69.5 °F 68 °F 29.89 in Calm     95% 0.00 in 0 W/m2
00:59 69.4 °F 67.9 °F 29.89 in Calm     95% 0.00 in 0 W/m2
01:04 69.3 °F 67.8 °F 29.89 in Calm     95% 0.00 in 0 W/m2
01:09 69.2 °F 67.8 °F 29.89 in Calm     95% 0.00 in 0 W/m2
01:14 69.2 °F 67.7 °F 29.89 in Calm     95% 0.00 in 0 W/m2
01:19 69.1 °F 67.6 °F 29.89 in Calm     95% 0.00 in 0 W/m2
01:24 69.1 °F 67.6 °F 29.89 in Calm     95% 0.00 in 0 W/m2
01:29 69 °F 67.6 °F 29.89 in Calm     95% 0.00 in 0 W/m2
01:34 69 °F 67.5 °F 29.89 in Calm     95% 0.00 in 0 W/m2
01:39 69 °F 67.5 °F 29.88 in Calm     95% 0.00 in 0 W/m2
01:44 69 °F 67.5 °F 29.88 in Calm     95% 0.00 in 0 W/m2
01:49 68.9 °F 67.4 °F 29.88 in Calm     95% 0.00 in 0 W/m2
01:54 68.8 °F 67.3 °F 29.88 in Calm     95% 0.00 in 0 W/m2
01:59 68.7 °F 67.3 °F 29.88 in Calm     95% 0.00 in 0 W/m2
02:04 68.7 °F 67.2 °F 29.88 in Calm     95% 0.00 in 0 W/m2
02:09 68.6 °F 67.1 °F 29.88 in Calm     95% 0.00 in 0 W/m2
02:14 68.5 °F 67.1 °F 29.87 in Calm     95% 0.00 in 0 W/m2
02:19 68.5 °F 67 °F 29.87 in Calm     95% 0.00 in 0 W/m2
02:24 68.4 °F 66.9 °F 29.87 in Calm     95% 0.00 in 0 W/m2
02:29 68.3 °F 66.8 °F 29.87 in Calm     95% 0.00 in 0 W/m2
02:34 68.1 °F 66.7 °F 29.87 in Calm     95% 0.00 in 0 W/m2
02:39 68.1 °F 66.6 °F 29.87 in Calm     95% 0.00 in 0 W/m2
02:44 68 °F 66.5 °F 29.87 in Calm     95% 0.00 in 0 W/m2
02:49 67.9 °F 66.4 °F 29.87 in Calm     95% 0.00 in 0 W/m2
02:54 67.8 °F 66.4 °F 29.87 in Calm     95% 0.00 in 0 W/m2
02:59 67.7 °F 66.3 °F 29.87 in Calm     95% 0.00 in 0 W/m2
03:04 67.7 °F 66.2 °F 29.87 in Calm     95% 0.00 in 0 W/m2
03:09 67.6 °F 66.1 °F 29.87 in Calm     95% 0.00 in 0 W/m2
03:14 67.6 °F 66.1 °F 29.87 in Calm     95% 0.00 in 0 W/m2
03:19 67.5 °F 66 °F 29.87 in Calm     95% 0.00 in 0 W/m2
03:24 67.4 °F 66 °F 29.87 in Calm     95% 0.00 in 0 W/m2
03:29 67.4 °F 65.9 °F 29.86 in Calm     95% 0.00 in 0 W/m2
03:34 67.3 °F 65.8 °F 29.86 in Calm     95% 0.00 in 0 W/m2
03:39 67.3 °F 65.8 °F 29.86 in Calm     95% 0.00 in 0 W/m2
03:44 67.2 °F 65.7 °F 29.86 in Calm     95% 0.00 in 0 W/m2
03:49 67.2 °F 65.7 °F 29.86 in Calm     95% 0.00 in 0 W/m2
03:54 67.1 °F 65.6 °F 29.86 in Calm     95% 0.00 in 0 W/m2
03:59 67.1 °F 65.6 °F 29.86 in Calm     95% 0.00 in 0 W/m2
04:00 67 °F 65.5 °F 29.86 in Calm     95% 0.00 in 0 W/m2
04:09 67 °F 65.5 °F 29.86 in Calm     95% 0.00 in 0 W/m2
04:14 67 °F 65.5 °F 29.86 in Calm     95% 0.00 in 0 W/m2
04:19 66.9 °F 65.4 °F 29.86 in Calm     95% 0.00 in 0 W/m2
04:24 66.9 °F 65.4 °F 29.86 in Calm     95% 0.00 in 0 W/m2
04:29 66.9 °F 65.4 °F 29.86 in Calm     95% 0.00 in 0 W/m2
04:34 66.8 °F 65.3 °F 29.86 in Calm     95% 0.00 in 0 W/m2
04:39 66.8 °F 65.3 °F 29.85 in Calm     95% 0.00 in 0 W/m2
04:44 66.8 °F 65.3 °F 29.85 in Calm     95% 0.00 in 0 W/m2
04:49 66.8 °F 65.3 °F 29.85 in Calm     95% 0.00 in 0 W/m2
04:54 66.7 °F 65.2 °F 29.85 in Calm     95% 0.00 in 0 W/m2
04:59 66.7 °F 65.2 °F 29.85 in Calm     95% 0.00 in 0 W/m2
05:04 66.7 °F 65.2 °F 29.85 in Calm     95% 0.00 in 0 W/m2
05:09 66.6 °F 65.2 °F 29.85 in Calm     95% 0.00 in 0 W/m2
05:14 66.6 °F 65.1 °F 29.85 in Calm     95% 0.00 in 0 W/m2
05:19 66.6 °F 65.1 °F 29.85 in Calm     95% 0.00 in 0 W/m2
05:24 66.6 °F 65.1 °F 29.85 in Calm     95% 0.00 in 0 W/m2
05:29 66.6 °F 65.3 °F 29.85 in Calm     95.6% 0.00 in 0 W/m2
05:34 66.6 °F 65.5 °F 29.85 in Calm     96% 0.00 in 0 W/m2
05:39 66.6 °F 65.4 °F 29.86 in Calm     96% 0.00 in 0 W/m2
05:44 66.6 °F 65.4 °F 29.86 in Calm     96% 0.00 in 0 W/m2
05:49 66.6 °F 65.4 °F 29.86 in Calm     96% 0.00 in 5 W/m2
05:54 66.5 °F 65.4 °F 29.86 in Calm     96% 0.00 in 7 W/m2
05:59 66.5 °F 65.3 °F 29.86 in Calm     96% 0.00 in 11 W/m2
06:04 66.5 °F 65.3 °F 29.86 in Calm     96% 0.00 in 12 W/m2
06:09 66.5 °F 65.3 °F 29.86 in Calm     96% 0.00 in 16 W/m2
06:14 66.5 °F 65.3 °F 29.86 in Calm     96% 0.00 in 19 W/m2
06:19 66.5 °F 65.3 °F 29.86 in Calm     96% 0.00 in 23 W/m2
06:24 66.5 °F 65.4 °F 29.86 in Calm     96% 0.00 in 25 W/m2
06:29 66.6 °F 65.4 °F 29.87 in Calm     96% 0.00 in 28 W/m2
06:34 66.7 °F 65.5 °F 29.87 in Calm     96% 0.00 in 32 W/m2
06:39 66.8 °F 65.6 °F 29.87 in Calm     96% 0.00 in 37 W/m2
06:44 66.9 °F 65.7 °F 29.87 in Calm     96% 0.00 in 42 W/m2
06:49 67.1 °F 65.9 °F 29.87 in Calm     96% 0.00 in 47 W/m2
06:54 67.3 °F 66.1 °F 29.87 in Calm     96% 0.00 in 51 W/m2
06:59 67.6 °F 66.4 °F 29.87 in Calm     96% 0.00 in 56 W/m2
07:04 67.8 °F 66.6 °F 29.87 in Calm     96% 0.00 in 62 W/m2
07:09 68.1 °F 66.9 °F 29.87 in Calm     96% 0.00 in 67 W/m2
07:13 68.3 °F 67.3 °F 29.87 in Calm     96.6% 0.00 in 70 W/m2
07:19 68.5 °F 67.5 °F 29.87 in Calm     96.4% 0.00 in 74 W/m2
07:24 68.7 °F 67.5 °F 29.87 in Calm     96% 0.00 in 88 W/m2
07:29 68.9 °F 67.8 °F 29.87 in Calm     96% 0.00 in 98 W/m2
07:34 69.3 °F 68.1 °F 29.88 in Calm     96% 0.00 in 104 W/m2
07:39 69.7 °F 68.5 °F 29.88 in Calm     96% 0.00 in 114 W/m2
07:44 70.1 °F 69 °F 29.88 in Calm     96% 0.00 in 128 W/m2
07:49 70.6 °F 69.4 °F 29.88 in Calm     96% 0.00 in 142 W/m2
07:54 70.9 °F 69.7 °F 29.88 in Calm     96% 0.00 in 155 W/m2
07:59 71.3 °F 70 °F 29.88 in West 0.2 mph 2 mph 95.7% 0.00 in 165 W/m2
08:00 71.4 °F 69.9 °F 29.88 in Calm   2 mph 95% 0.00 in 165 W/m2
08:09 72 °F 69.9 °F 29.88 in West 0.1 mph 2 mph 93% 0.00 in 183 W/m2
08:14 72.5 °F 70.1 °F 29.88 in West 0.6 mph 4 mph 92.3% 0.00 in 197 W/m2
08:19 73.1 °F 70.4 °F 29.88 in Calm   4 mph 91.3% 0.00 in 200 W/m2
08:24 73.6 °F 70.6 °F 29.88 in Calm   4 mph 90.3% 0.00 in 220 W/m2
08:29 74.1 °F 70.6 °F 29.88 in Calm   4 mph 88.8% 0.00 in 234 W/m2
08:34 74.6 °F 70.6 °F 29.88 in West 0.1 mph 4 mph 87.5% 0.00 in 237 W/m2
08:39 75 °F 70.9 °F 29.88 in Calm   2 mph 87% 0.00 in 269 W/m2
08:44 75.4 °F 71.1 °F 29.88 in Calm   2 mph 86.3% 0.00 in 290 W/m2
08:49 75.8 °F 70.9 °F 29.88 in WNW 0.6 mph 5 mph 84.8% 0.00 in 306 W/m2
08:54 76.2 °F 70.8 °F 29.88 in WNW 1 mph 5 mph 83.6% 0.00 in 315 W/m2
08:59 76.4 °F 70.6 °F 29.88 in WNW 0.6 mph 5 mph 82.3% 0.00 in 316 W/m2
09:04 76.7 °F 71 °F 29.88 in WNW 0.3 mph 5 mph 82.7% 0.00 in 332 W/m2
09:09 77.1 °F 71.2 °F 29.88 in WNW 0.4 mph 5 mph 82% 0.00 in 352 W/m2
09:14 77.5 °F 71.6 °F 29.88 in WNW 0.2 mph 5 mph 82.1% 0.00 in 373 W/m2
09:19 77.9 °F 71.7 °F 29.88 in WNW 0.5 mph 5 mph 81.2% 0.00 in 373 W/m2
09:24 78.2 °F 71.3 °F 29.88 in WNW 2.3 mph 7 mph 79.4% 0.00 in 373 W/m2
09:29 78.3 °F 71.2 °F 29.88 in WNW 1.9 mph 7 mph 78.8% 0.00 in 383 W/m2
09:34 78.4 °F 71.1 °F 29.88 in WNW 2.9 mph 10 mph 78.5% 0.00 in 378 W/m2
09:39 78.3 °F 71 °F 29.88 in WNW 3.6 mph 13 mph 78.2% 0.00 in 390 W/m2
09:44 78.3 °F 71.2 °F 29.88 in NW 3 mph 13 mph 78.8% 0.00 in 411 W/m2
09:49 78.5 °F 71.4 °F 29.88 in WNW 2.3 mph 13 mph 79% 0.00 in 427 W/m2
09:54 78.7 °F 71.5 °F 29.88 in NW 2.1 mph 13 mph 78.7% 0.00 in 439 W/m2
09:59 78.9 °F 71.6 °F 29.88 in NW 2.9 mph 13 mph 78.5% 0.00 in 443 W/m2
10:04 79.1 °F 71.6 °F 29.88 in NW 3.6 mph 13 mph 77.7% 0.00 in 450 W/m2
10:09 79.3 °F 71.7 °F 29.88 in WNW 1.5 mph 10 mph 77.6% 0.00 in 466 W/m2
10:14 79.6 °F 71.7 °F 29.88 in NW 3 mph 10 mph 77% 0.00 in 462 W/m2
10:19 79.7 °F 71.9 °F 29.89 in NW 2.7 mph 10 mph 77% 0.00 in 469 W/m2
10:24 79.9 °F 71.7 °F 29.89 in NNW 2.1 mph 10 mph 76.1% 0.00 in 464 W/m2
10:29 80 °F 71.7 °F 29.89 in NW 2.3 mph 10 mph 75.9% 0.00 in 475 W/m2
10:34 80.2 °F 71.9 °F 29.89 in WNW 0.2 mph 10 mph 76% 0.00 in 485 W/m2
10:39 80.4 °F 72 °F 29.89 in NW 1.7 mph 7 mph 75.4% 0.00 in 480 W/m2
10:44 80.5 °F 71.3 °F 29.89 in WNW 2.8 mph 7 mph 73.7% 0.00 in 476 W/m2
10:49 80.5 °F 71.7 °F 29.89 in West 1.6 mph 7 mph 74.5% 0.00 in 489 W/m2
10:54 80.5 °F 71.5 °F 29.89 in West 1.2 mph 7 mph 74.2% 0.00 in 492 W/m2
10:59 80.7 °F 71.9 °F 29.88 in West 0.7 mph 7 mph 74.7% 0.00 in 497 W/m2
11:04 80.9 °F 72 °F 29.89 in West 1.1 mph 7 mph 74.3% 0.00 in 496 W/m2
11:09 81.2 °F 72.1 °F 29.89 in West 1.5 mph 6 mph 74% 0.00 in 510 W/m2
11:14 81.4 °F 71.8 °F 29.88 in West 2.3 mph 8 mph 72.8% 0.00 in 533 W/m2
11:19 81.5 °F 71.8 °F 29.88 in West 1.8 mph 8 mph 72.5% 0.00 in 548 W/m2
11:24 81.8 °F 72.6 °F 29.88 in West 0.3 mph 8 mph 73.7% 0.00 in 531 W/m2
11:29 82.1 °F 72.8 °F 29.88 in West 0.5 mph 8 mph 73.3% 0.00 in 563 W/m2
11:34 82.4 °F 72.6 °F 29.88 in West 0.6 mph 8 mph 72.4% 0.00 in 563 W/m2
11:39 82.7 °F 72.7 °F 29.88 in WNW 1.8 mph 7 mph 71.8% 0.00 in 540 W/m2
11:44 82.9 °F 72.6 °F 29.88 in West 1.5 mph 7 mph 71.2% 0.00 in 555 W/m2
11:49 83.2 °F 73.6 °F 29.88 in West 0.7 mph 7 mph 72.9% 0.00 in 573 W/m2
11:54 83.3 °F 73 °F 29.88 in West 0.7 mph 7 mph 71.1% 0.00 in 605 W/m2
11:59 83.7 °F 74.1 °F 29.87 in WNW 1.2 mph 7 mph 72.9% 0.00 in 612 W/m2
12:00 83.9 °F 73.1 °F 29.87 in WNW 3 mph 7 mph 70% 0.00 in 612 W/m2
12:09 83.7 °F 71.9 °F 29.87 in WNW 1.7 mph 7 mph 67.8% 0.00 in 624 W/m2
12:14 83.6 °F 72.6 °F 29.87 in West 1.4 mph 7 mph 69.4% 0.00 in 633 W/m2
12:19 83.7 °F 72 °F 29.87 in West 1.4 mph 7 mph 68% 0.00 in 640 W/m2
12:24 83.9 °F 73.2 °F 29.87 in WNW 0.7 mph 7 mph 70.3% 0.00 in 649 W/m2
12:29 84.1 °F 72.7 °F 29.87 in WNW 0.8 mph 7 mph 68.6% 0.00 in 663 W/m2
12:34 84.2 °F 72.3 °F 29.87 in WNW 1.4 mph 7 mph 67.6% 0.00 in 663 W/m2
12:39 84.3 °F 73.1 °F 29.87 in WNW 0.4 mph 5 mph 69.4% 0.00 in 670 W/m2
12:44 84.4 °F 72.8 °F 29.87 in WNW 0.1 mph 5 mph 68.2% 0.00 in 666 W/m2
12:49 84.5 °F 72.7 °F 29.87 in WNW 0.6 mph 5 mph 67.8% 0.00 in 657 W/m2
12:54 84.6 °F 72.8 °F 29.87 in WNW 1.2 mph 7 mph 67.8% 0.00 in 679 W/m2
12:59 84.7 °F 72.4 °F 29.87 in West 2 mph 7 mph 66.7% 0.00 in 677 W/m2
13:04 84.8 °F 72.2 °F 29.87 in West 0.4 mph 7 mph 66.2% 0.00 in 671 W/m2
13:09 85.1 °F 73.5 °F 29.86 in WNW 1.9 mph 7 mph 68.3% 0.00 in 670 W/m2
13:14 85.1 °F 72.6 °F 29.86 in WNW 2.1 mph 7 mph 66.1% 0.00 in 664 W/m2
13:19 85.1 °F 73.1 °F 29.86 in WNW 0.5 mph 7 mph 67.3% 0.00 in 670 W/m2
13:24 85.2 °F 72.7 °F 29.86 in Calm   7 mph 66.4% 0.00 in 670 W/m2
13:29 85.1 °F 72.5 °F 29.85 in WNW 1.5 mph 7 mph 66.1% 0.00 in 661 W/m2
13:34 85.2 °F 72.4 °F 29.85 in WNW 0.6 mph 7 mph 65.7% 0.00 in 661 W/m2
13:39 85.4 °F 72.4 °F 29.86 in WNW 0.9 mph 5 mph 65.2% 0.00 in 654 W/m2
13:44 85.7 °F 72.5 °F 29.86 in West 2.2 mph 7 mph 64.9% 0.00 in 654 W/m2
13:49 85.8 °F 71.9 °F 29.86 in West 0.4 mph 7 mph 63.4% 0.00 in 635 W/m2
13:54 85.8 °F 72.9 °F 29.86 in West 0.9 mph 7 mph 65.3% 0.00 in 622 W/m2
13:59 85.9 °F 72.8 °F 29.86 in West 1 mph 7 mph 65% 0.00 in 635 W/m2
14:04 86.1 °F 73.2 °F 29.85 in West 0.8 mph 7 mph 65.5% 0.00 in 635 W/m2
14:09 86.2 °F 73.6 °F 29.85 in West 1.3 mph 6 mph 66.3% 0.00 in 624 W/m2
14:14 86.2 °F 73 °F 29.85 in West 2.1 mph 6 mph 64.8% 0.00 in 615 W/m2
14:19 86.2 °F 72.7 °F 29.85 in West 1.3 mph 6 mph 64.1% 0.00 in 612 W/m2
14:24 86.4 °F 73.8 °F 29.85 in West 1.5 mph 6 mph 66.3% 0.00 in 596 W/m2
14:29 86.4 °F 72.7 °F 29.85 in West 0.4 mph 6 mph 63.8% 0.00 in 587 W/m2
14:34 86.3 °F 73.4 °F 29.85 in West 0.6 mph 6 mph 65.4% 0.00 in 584 W/m2
14:39 86.5 °F 73.4 °F 29.84 in West 0.7 mph 5 mph 65.2% 0.00 in 578 W/m2
14:44 86.6 °F 73.9 °F 29.84 in West 0.1 mph 5 mph 66.1% 0.00 in 575 W/m2
14:49 86.5 °F 73.6 °F 29.84 in West 0.6 mph 6 mph 65.5% 0.00 in 561 W/m2
14:54 86.6 °F 73.5 °F 29.83 in West 1.1 mph 6 mph 65.2% 0.00 in 552 W/m2
14:59 86.7 °F 72.6 °F 29.83 in Calm   6 mph 63% 0.00 in 543 W/m2
15:03 86.8 °F 72.9 °F 29.83 in Calm   6 mph 63.5% 0.00 in 541 W/m2
15:09 86.7 °F 72.8 °F 29.83 in West 0.4 mph 3 mph 63.4% 0.00 in 531 W/m2
15:14 86.8 °F 72.7 °F 29.83 in West 0.1 mph 3 mph 63.1% 0.00 in 519 W/m2
15:19 86.8 °F 73.2 °F 29.83 in Calm   3 mph 64.2% 0.00 in 522 W/m2
15:24 86.8 °F 73.9 °F 29.83 in West 1.5 mph 5 mph 65.5% 0.00 in 520 W/m2
15:29 87.1 °F 73.5 °F 29.83 in West 1.2 mph 5 mph 64.1% 0.00 in 512 W/m2
15:34 87.3 °F 73.5 °F 29.83 in West 1 mph 5 mph 63.7% 0.00 in 492 W/m2
15:39 87.4 °F 73.5 °F 29.83 in West 1 mph 3 mph 63.4% 0.00 in 476 W/m2
15:44 87.6 °F 73.4 °F 29.83 in West 0.4 mph 3 mph 62.9% 0.00 in 448 W/m2
15:49 87.7 °F 73 °F 29.82 in West 0.9 mph 4 mph 61.8% 0.00 in 446 W/m2
15:54 87.8 °F 73 °F 29.82 in West 0.1 mph 4 mph 61.6% 0.00 in 450 W/m2
15:59 87.8 °F 73.7 °F 29.82 in West 0.9 mph 5 mph 63.2% 0.00 in 432 W/m2
16:00 87.7 °F 73.6 °F 29.82 in Calm   5 mph 63% 0.00 in 427 W/m2
16:09 87.9 °F 74.3 °F 29.82 in West 0.2 mph 3 mph 64.2% 0.00 in 415 W/m2
16:14 88 °F 74.3 °F 29.82 in West 0.9 mph 6 mph 64% 0.00 in 394 W/m2
16:19 88 °F 74.3 °F 29.82 in Calm   6 mph 63.9% 0.00 in 374 W/m2
16:24 87.9 °F 73.1 °F 29.82 in Calm   6 mph 61.8% 0.00 in 183 W/m2
16:29 87.6 °F 73.2 °F 29.82 in West 0.3 mph 6 mph 62.5% 0.00 in 190 W/m2
16:34 87.5 °F 73.9 °F 29.82 in West 0.1 mph 6 mph 64.2% 0.00 in 192 W/m2
16:39 87.6 °F 74.4 °F 29.82 in Calm   1 mph 65% 0.00 in 183 W/m2
16:44 87.5 °F 73.5 °F 29.81 in Calm   1 mph 63.3% 0.00 in 171 W/m2
16:49 87.4 °F 73.5 °F 29.81 in Calm   1 mph 63.4% 0.00 in 163 W/m2
16:54 87.3 °F 74.2 °F 29.81 in West 1 mph 4 mph 65.1% 0.00 in 155 W/m2
16:59 87.2 °F 73 °F 29.81 in West 0.4 mph 4 mph 62.7% 0.00 in 149 W/m2
17:04 87.2 °F 72.7 °F 29.81 in West 0.2 mph 4 mph 62.3% 0.00 in 144 W/m2
17:09 87.1 °F 72.5 °F 29.80 in West 1.4 mph 4 mph 62% 0.00 in 144 W/m2
17:14 87 °F 73.1 °F 29.81 in West 0.7 mph 4 mph 63.4% 0.00 in 139 W/m2
17:19 87 °F 73.3 °F 29.80 in West 0.2 mph 4 mph 63.8% 0.00 in 130 W/m2
17:24 87 °F 72.7 °F 29.80 in West 1.3 mph 4 mph 62.6% 0.00 in 125 W/m2
17:29 86.9 °F 72.5 °F 29.80 in West 0.9 mph 4 mph 62.4% 0.00 in 118 W/m2
17:34 86.9 °F 72.8 °F 29.80 in Calm   4 mph 63% 0.00 in 114 W/m2
17:39 86.8 °F 72.6 °F 29.80 in West 0.1 mph 2 mph 62.8% 0.00 in 107 W/m2
17:44 86.8 °F 72.8 °F 29.80 in West 0.1 mph 2 mph 63.2% 0.00 in 102 W/m2
17:49 86.8 °F 72.9 °F 29.80 in West 0.5 mph 3 mph 63.5% 0.00 in 102 W/m2
17:54 86.7 °F 72.7 °F 29.80 in Calm   3 mph 63.3% 0.00 in 97 W/m2
17:59 86.6 °F 73.2 °F 29.79 in West 0.5 mph 3 mph 64.6% 0.00 in 93 W/m2
18:04 86.4 °F 72.7 °F 29.80 in West 0.5 mph 3 mph 63.8% 0.00 in 88 W/m2
18:09 86.3 °F 73 °F 29.80 in Calm   2 mph 64.7% 0.00 in 83 W/m2
18:14 86.2 °F 73.1 °F 29.80 in West 0.1 mph 2 mph 65.2% 0.00 in 79 W/m2
18:30 85.7 °F 73.9 °F 29.80 in Calm   5 mph 68% 0.00 in 74 W/m2
19:00 84.7 °F 73.8 °F 29.79 in Calm   3 mph 70% 0.00 in 52 W/m2
19:30 83.1 °F 72.7 °F 29.79 in Calm   5 mph 71% 0.00 in 33 W/m2
20:04 81.8 °F 72.6 °F 29.80 in Calm   5 mph 73.8% 0.00 in 33 W/m2
20:09 81.5 °F 72.5 °F 29.80 in Calm     74% 0.00 in 5 W/m2
20:14 81.3 °F 72.6 °F 29.80 in Calm     74.9% 0.00 in 0 W/m2
20:19 81.1 °F 72.4 °F 29.80 in Calm     75% 0.00 in 0 W/m2
20:24 80.8 °F 72.3 °F 29.80 in Calm     75.2% 0.00 in 0 W/m2
20:29 80.6 °F 72.3 °F 29.80 in West 0.1 mph 3 mph 76% 0.00 in 0 W/m2
20:34 80.4 °F 72.1 °F 29.80 in Calm   3 mph 76% 0.00 in 0 W/m2
20:39 80.1 °F 72.3 °F 29.80 in Calm     77% 0.00 in 0 W/m2
20:44 79.9 °F 72.1 °F 29.80 in Calm     77% 0.00 in 0 W/m2
20:49 79.7 °F 71.9 °F 29.80 in West 0.1 mph 2 mph 77% 0.00 in 0 W/m2
20:52 79.6 °F 71.7 °F 29.80 in Calm   2 mph 77% 0.00 in 0 W/m2
21:00 79.3 °F 71.8 °F 29.80 in Calm   2 mph 78% 0.00 in 0 W/m2
21:30 78.3 °F 71.6 °F 29.80 in Calm     80% 0.00 in 0 W/m2
22:00 77.3 °F 71 °F 29.81 in Calm     81% 0.00 in 0 W/m2
22:30 76.6 °F 71.1 °F 29.81 in Calm     83% 0.00 in 0 W/m2
23:00 76.1 °F 70.9 °F 29.83 in Calm     84% 0.00 in 0 W/m2
23:30 75.6 °F 70.8 °F 29.82 in Calm     85% 0.00 in 0 W/m2
Hartford County Weather
Compliments of Weather Underground - 2 mb